sensor_id;sensor_type;location;lat;lon;timestamp;temperature;humidity
44215;DHT22;29884;47.450;19.124;2023-03-01T00:01:59;4.80;99.90
44215;DHT22;29884;47.450;19.124;2023-03-01T00:04:25;4.70;99.90
44215;DHT22;29884;47.450;19.124;2023-03-01T00:06:51;4.70;99.90
44215;DHT22;29884;47.450;19.124;2023-03-01T00:09:17;4.70;99.90
44215;DHT22;29884;47.450;19.124;2023-03-01T00:11:43;4.70;99.90
44215;DHT22;29884;47.450;19.124;2023-03-01T00:14:09;4.70;99.90
44215;DHT22;29884;47.450;19.124;2023-03-01T00:16:37;4.70;99.90
44215;DHT22;29884;47.450;19.124;2023-03-01T00:19:07;4.70;99.90
44215;DHT22;29884;47.450;19.124;2023-03-01T00:21:33;4.70;99.90
44215;DHT22;29884;47.450;19.124;2023-03-01T00:24:01;4.70;99.90
44215;DHT22;29884;47.450;19.124;2023-03-01T00:26:27;4.70;99.90
44215;DHT22;29884;47.450;19.124;2023-03-01T00:28:53;4.70;99.90
44215;DHT22;29884;47.450;19.124;2023-03-01T00:31:26;4.70;99.90
44215;DHT22;29884;47.450;19.124;2023-03-01T00:33:53;4.70;99.90
44215;DHT22;29884;47.450;19.124;2023-03-01T00:36:23;4.70;99.90
44215;DHT22;29884;47.450;19.124;2023-03-01T00:38:49;4.80;99.90
44215;DHT22;29884;47.450;19.124;2023-03-01T00:41:17;4.90;99.90
44215;DHT22;29884;47.450;19.124;2023-03-01T00:43:44;4.80;99.90
44215;DHT22;29884;47.450;19.124;2023-03-01T00:46:15;4.90;99.90
44215;DHT22;29884;47.450;19.124;2023-03-01T00:48:42;4.90;99.90
44215;DHT22;29884;47.450;19.124;2023-03-01T00:51:12;5.00;99.90
44215;DHT22;29884;47.450;19.124;2023-03-01T00:53:38;4.90;99.90
44215;DHT22;29884;47.450;19.124;2023-03-01T00:56:05;4.90;99.90
44215;DHT22;29884;47.450;19.124;2023-03-01T00:58:31;4.90;99.90
44215;DHT22;29884;47.450;19.124;2023-03-01T01:00:57;4.90;99.90
44215;DHT22;29884;47.450;19.124;2023-03-01T01:03:23;4.80;99.90
44215;DHT22;29884;47.450;19.124;2023-03-01T01:05:51;4.80;99.90
44215;DHT22;29884;47.450;19.124;2023-03-01T01:08:18;4.80;99.90
44215;DHT22;29884;47.450;19.124;2023-03-01T01:10:44;4.80;99.90
44215;DHT22;29884;47.450;19.124;2023-03-01T01:13:10;4.80;99.90
44215;DHT22;29884;47.450;19.124;2023-03-01T01:15:36;4.80;99.90
44215;DHT22;29884;47.450;19.124;2023-03-01T01:18:02;4.80;99.90
44215;DHT22;29884;47.450;19.124;2023-03-01T01:20:28;4.80;99.90
44215;DHT22;29884;47.450;19.124;2023-03-01T01:22:55;4.80;99.90
44215;DHT22;29884;47.450;19.124;2023-03-01T01:25:20;4.80;99.90
44215;DHT22;29884;47.450;19.124;2023-03-01T01:27:46;4.80;99.90
44215;DHT22;29884;47.450;19.124;2023-03-01T01:30:12;4.80;99.90
44215;DHT22;29884;47.450;19.124;2023-03-01T01:32:38;4.80;99.90
44215;DHT22;29884;47.450;19.124;2023-03-01T01:35:04;4.70;99.90
44215;DHT22;29884;47.450;19.124;2023-03-01T01:37:30;4.70;99.90
44215;DHT22;29884;47.450;19.124;2023-03-01T01:39:59;4.80;99.90
44215;DHT22;29884;47.450;19.124;2023-03-01T01:42:26;4.80;99.90
44215;DHT22;29884;47.450;19.124;2023-03-01T01:47:59;4.80;99.90
44215;DHT22;29884;47.450;19.124;2023-03-01T01:50:25;4.80;99.90
44215;DHT22;29884;47.450;19.124;2023-03-01T01:52:53;4.80;99.90
44215;DHT22;29884;47.450;19.124;2023-03-01T01:55:24;4.80;99.90
44215;DHT22;29884;47.450;19.124;2023-03-01T01:57:58;4.80;99.90
44215;DHT22;29884;47.450;19.124;2023-03-01T02:00:29;4.80;99.90
44215;DHT22;29884;47.450;19.124;2023-03-01T02:03:01;4.70;99.90
44215;DHT22;29884;47.450;19.124;2023-03-01T02:08:23;4.70;99.90
44215;DHT22;29884;47.450;19.124;2023-03-01T02:10:51;4.70;99.90
44215;DHT22;29884;47.450;19.124;2023-03-01T02:13:17;4.70;99.90
44215;DHT22;29884;47.450;19.124;2023-03-01T02:15:43;4.70;99.90
44215;DHT22;29884;47.450;19.124;2023-03-01T02:18:11;4.70;99.90
44215;DHT22;29884;47.450;19.124;2023-03-01T02:21:01;4.70;99.90
44215;DHT22;29884;47.450;19.124;2023-03-01T02:23:29;4.70;99.90
44215;DHT22;29884;47.450;19.124;2023-03-01T02:28:29;4.60;99.90
44215;DHT22;29884;47.450;19.124;2023-03-01T02:30:55;4.60;99.90
44215;DHT22;29884;47.450;19.124;2023-03-01T02:33:40;4.50;99.90
44215;DHT22;29884;47.450;19.124;2023-03-01T02:36:17;4.50;99.90
44215;DHT22;29884;47.450;19.124;2023-03-01T02:38:44;4.50;99.90
44215;DHT22;29884;47.450;19.124;2023-03-01T02:41:13;4.50;99.90
44215;DHT22;29884;47.450;19.124;2023-03-01T02:43:40;4.60;99.90
44215;DHT22;29884;47.450;19.124;2023-03-01T02:46:14;4.60;99.90
44215;DHT22;29884;47.450;19.124;2023-03-01T02:48:48;4.60;99.90
44215;DHT22;29884;47.450;19.124;2023-03-01T02:54:29;4.60;99.90
44215;DHT22;29884;47.450;19.124;2023-03-01T02:56:58;4.60;99.90
44215;DHT22;29884;47.450;19.124;2023-03-01T02:59:30;4.60;99.90
44215;DHT22;29884;47.450;19.124;2023-03-01T03:01:56;4.60;99.90
44215;DHT22;29884;47.450;19.124;2023-03-01T03:04:22;4.60;99.90
44215;DHT22;29884;47.450;19.124;2023-03-01T03:06:50;4.60;99.90
44215;DHT22;29884;47.450;19.124;2023-03-01T03:09:17;4.70;99.90
44215;DHT22;29884;47.450;19.124;2023-03-01T03:11:43;4.70;99.90
44215;DHT22;29884;47.450;19.124;2023-03-01T03:14:10;4.80;99.90
44215;DHT22;29884;47.450;19.124;2023-03-01T03:16:42;4.70;99.90
44215;DHT22;29884;47.450;19.124;2023-03-01T03:19:08;4.80;99.90
44215;DHT22;29884;47.450;19.124;2023-03-01T03:21:34;4.70;99.90
44215;DHT22;29884;47.450;19.124;2023-03-01T03:24:00;4.70;99.90
44215;DHT22;29884;47.450;19.124;2023-03-01T03:26:26;4.70;99.90
44215;DHT22;29884;47.450;19.124;2023-03-01T03:28:52;4.70;99.90
44215;DHT22;29884;47.450;19.124;2023-03-01T03:31:18;4.60;99.90
44215;DHT22;29884;47.450;19.124;2023-03-01T03:33:44;4.60;99.90
44215;DHT22;29884;47.450;19.124;2023-03-01T03:36:09;4.60;99.90
44215;DHT22;29884;47.450;19.124;2023-03-01T03:38:43;4.50;99.90
44215;DHT22;29884;47.450;19.124;2023-03-01T03:41:10;4.50;99.90
44215;DHT22;29884;47.450;19.124;2023-03-01T03:43:37;4.50;99.90
44215;DHT22;29884;47.450;19.124;2023-03-01T03:46:04;4.50;99.90
44215;DHT22;29884;47.450;19.124;2023-03-01T03:48:34;4.50;99.90
44215;DHT22;29884;47.450;19.124;2023-03-01T03:51:00;4.50;99.90
44215;DHT22;29884;47.450;19.124;2023-03-01T03:53:27;4.50;99.90
44215;DHT22;29884;47.450;19.124;2023-03-01T03:55:53;4.50;99.90
44215;DHT22;29884;47.450;19.124;2023-03-01T03:58:21;4.40;99.90
44215;DHT22;29884;47.450;19.124;2023-03-01T04:00:49;4.40;99.90
44215;DHT22;29884;47.450;19.124;2023-03-01T04:03:17;4.40;99.90
44215;DHT22;29884;47.450;19.124;2023-03-01T04:05:44;4.40;99.90
44215;DHT22;29884;47.450;19.124;2023-03-01T04:08:11;4.40;99.90
44215;DHT22;29884;47.450;19.124;2023-03-01T04:10:43;4.40;99.90
44215;DHT22;29884;47.450;19.124;2023-03-01T04:13:14;4.40;99.90
44215;DHT22;29884;47.450;19.124;2023-03-01T04:15:40;4.40;99.90
44215;DHT22;29884;47.450;19.124;2023-03-01T04:18:07;4.30;99.90
44215;DHT22;29884;47.450;19.124;2023-03-01T04:20:34;4.40;99.90
44215;DHT22;29884;47.450;19.124;2023-03-01T04:23:08;4.30;99.90
44215;DHT22;29884;47.450;19.124;2023-03-01T04:28:25;4.50;99.90
44215;DHT22;29884;47.450;19.124;2023-03-01T04:30:52;4.40;99.90
44215;DHT22;29884;47.450;19.124;2023-03-01T04:33:18;4.40;99.90
44215;DHT22;29884;47.450;19.124;2023-03-01T04:35:44;4.40;99.90
44215;DHT22;29884;47.450;19.124;2023-03-01T04:38:10;4.40;99.90
44215;DHT22;29884;47.450;19.124;2023-03-01T04:40:36;4.40;99.90
44215;DHT22;29884;47.450;19.124;2023-03-01T04:43:02;4.40;99.90
44215;DHT22;29884;47.450;19.124;2023-03-01T04:45:28;4.40;99.90
44215;DHT22;29884;47.450;19.124;2023-03-01T04:47:54;4.40;99.90
44215;DHT22;29884;47.450;19.124;2023-03-01T04:50:20;4.40;99.90
44215;DHT22;29884;47.450;19.124;2023-03-01T04:52:47;4.40;99.90
44215;DHT22;29884;47.450;19.124;2023-03-01T04:55:13;4.40;99.90
44215;DHT22;29884;47.450;19.124;2023-03-01T04:57:39;4.40;99.90
44215;DHT22;29884;47.450;19.124;2023-03-01T05:00:08;4.40;99.90
44215;DHT22;29884;47.450;19.124;2023-03-01T05:05:19;4.40;99.90
44215;DHT22;29884;47.450;19.124;2023-03-01T05:07:46;4.40;99.90
44215;DHT22;29884;47.450;19.124;2023-03-01T05:10:11;4.40;99.90
44215;DHT22;29884;47.450;19.124;2023-03-01T05:12:37;4.40;99.90
44215;DHT22;29884;47.450;19.124;2023-03-01T05:15:04;4.40;99.90
44215;DHT22;29884;47.450;19.124;2023-03-01T05:17:33;4.40;99.90
44215;DHT22;29884;47.450;19.124;2023-03-01T05:19:59;4.40;99.90
44215;DHT22;29884;47.450;19.124;2023-03-01T05:22:26;4.50;99.90
44215;DHT22;29884;47.450;19.124;2023-03-01T05:24:52;4.40;99.90
44215;DHT22;29884;47.450;19.124;2023-03-01T05:27:19;4.40;99.90
44215;DHT22;29884;47.450;19.124;2023-03-01T05:29:47;4.40;99.90
44215;DHT22;29884;47.450;19.124;2023-03-01T05:32:13;4.40;99.90
44215;DHT22;29884;47.450;19.124;2023-03-01T05:34:41;4.40;99.90
44215;DHT22;29884;47.450;19.124;2023-03-01T05:37:07;4.40;99.90
44215;DHT22;29884;47.450;19.124;2023-03-01T05:39:33;4.40;99.90
44215;DHT22;29884;47.450;19.124;2023-03-01T05:42:00;4.50;99.90
44215;DHT22;29884;47.450;19.124;2023-03-01T05:44:28;4.50;99.90
44215;DHT22;29884;47.450;19.124;2023-03-01T05:46:54;4.50;99.90
44215;DHT22;29884;47.450;19.124;2023-03-01T05:49:21;4.50;99.90
44215;DHT22;29884;47.450;19.124;2023-03-01T05:51:51;4.50;99.90
44215;DHT22;29884;47.450;19.124;2023-03-01T05:54:18;4.50;99.90
44215;DHT22;29884;47.450;19.124;2023-03-01T05:56:44;4.50;99.90
44215;DHT22;29884;47.450;19.124;2023-03-01T05:59:10;4.60;99.90
44215;DHT22;29884;47.450;19.124;2023-03-01T06:01:36;4.60;99.90
44215;DHT22;29884;47.450;19.124;2023-03-01T06:04:03;4.60;99.90
44215;DHT22;29884;47.450;19.124;2023-03-01T06:06:29;4.60;99.90
44215;DHT22;29884;47.450;19.124;2023-03-01T06:08:58;4.60;99.90
44215;DHT22;29884;47.450;19.124;2023-03-01T06:11:24;4.60;99.90
44215;DHT22;29884;47.450;19.124;2023-03-01T06:13:50;4.70;99.90
44215;DHT22;29884;47.450;19.124;2023-03-01T06:16:16;4.70;99.90
44215;DHT22;29884;47.450;19.124;2023-03-01T06:18:42;4.70;99.90
44215;DHT22;29884;47.450;19.124;2023-03-01T06:21:08;4.80;99.90
44215;DHT22;29884;47.450;19.124;2023-03-01T06:23:34;4.80;99.90
44215;DHT22;29884;47.450;19.124;2023-03-01T06:26:00;4.90;99.90
44215;DHT22;29884;47.450;19.124;2023-03-01T06:28:26;4.80;99.90
44215;DHT22;29884;47.450;19.124;2023-03-01T06:30:52;4.80;99.90
44215;DHT22;29884;47.450;19.124;2023-03-01T06:33:19;4.70;99.90
44215;DHT22;29884;47.450;19.124;2023-03-01T06:35:46;4.80;99.90
44215;DHT22;29884;47.450;19.124;2023-03-01T06:38:12;4.80;99.90
44215;DHT22;29884;47.450;19.124;2023-03-01T06:40:40;4.80;99.90
44215;DHT22;29884;47.450;19.124;2023-03-01T06:43:07;4.90;99.90
44215;DHT22;29884;47.450;19.124;2023-03-01T06:45:33;4.90;99.90
44215;DHT22;29884;47.450;19.124;2023-03-01T06:48:03;4.90;99.90
44215;DHT22;29884;47.450;19.124;2023-03-01T06:50:29;4.90;99.90
44215;DHT22;29884;47.450;19.124;2023-03-01T06:52:58;4.90;99.90
44215;DHT22;29884;47.450;19.124;2023-03-01T06:55:24;4.90;99.90
44215;DHT22;29884;47.450;19.124;2023-03-01T06:57:56;4.90;99.90
44215;DHT22;29884;47.450;19.124;2023-03-01T07:00:23;4.90;99.90
44215;DHT22;29884;47.450;19.124;2023-03-01T07:02:49;5.00;99.90
44215;DHT22;29884;47.450;19.124;2023-03-01T07:05:15;5.00;99.90
44215;DHT22;29884;47.450;19.124;2023-03-01T07:07:40;5.00;99.90
44215;DHT22;29884;47.450;19.124;2023-03-01T07:10:07;5.10;99.90
44215;DHT22;29884;47.450;19.124;2023-03-01T07:12:33;5.10;99.90
44215;DHT22;29884;47.450;19.124;2023-03-01T07:14:58;5.10;99.90
44215;DHT22;29884;47.450;19.124;2023-03-01T07:17:24;5.10;99.90
44215;DHT22;29884;47.450;19.124;2023-03-01T07:19:50;5.10;99.90
44215;DHT22;29884;47.450;19.124;2023-03-01T07:22:16;5.20;99.90
44215;DHT22;29884;47.450;19.124;2023-03-01T07:24:42;5.30;99.90
44215;DHT22;29884;47.450;19.124;2023-03-01T07:27:09;5.30;99.90
44215;DHT22;29884;47.450;19.124;2023-03-01T07:29:35;5.40;99.90
44215;DHT22;29884;47.450;19.124;2023-03-01T07:32:02;5.40;99.90
44215;DHT22;29884;47.450;19.124;2023-03-01T07:34:28;5.40;99.90
44215;DHT22;29884;47.450;19.124;2023-03-01T07:36:54;5.40;99.90
44215;DHT22;29884;47.450;19.124;2023-03-01T07:39:20;5.60;99.90
44215;DHT22;29884;47.450;19.124;2023-03-01T07:41:48;5.70;99.90
44215;DHT22;29884;47.450;19.124;2023-03-01T07:44:14;5.70;99.90
44215;DHT22;29884;47.450;19.124;2023-03-01T07:46:41;5.70;99.90
44215;DHT22;29884;47.450;19.124;2023-03-01T07:49:07;5.70;99.90
44215;DHT22;29884;47.450;19.124;2023-03-01T07:51:33;5.80;99.90
44215;DHT22;29884;47.450;19.124;2023-03-01T07:53:58;5.90;99.90
44215;DHT22;29884;47.450;19.124;2023-03-01T07:56:24;5.90;99.90
44215;DHT22;29884;47.450;19.124;2023-03-01T07:58:50;6.00;99.90
44215;DHT22;29884;47.450;19.124;2023-03-01T08:01:18;6.00;99.90
44215;DHT22;29884;47.450;19.124;2023-03-01T08:03:44;6.00;99.90
44215;DHT22;29884;47.450;19.124;2023-03-01T08:06:11;6.00;99.90
44215;DHT22;29884;47.450;19.124;2023-03-01T08:08:38;6.10;99.90
44215;DHT22;29884;47.450;19.124;2023-03-01T08:11:06;6.20;99.90
44215;DHT22;29884;47.450;19.124;2023-03-01T08:13:33;6.30;99.90
44215;DHT22;29884;47.450;19.124;2023-03-01T08:16:07;6.20;99.90
44215;DHT22;29884;47.450;19.124;2023-03-01T08:18:33;6.40;99.90
44215;DHT22;29884;47.450;19.124;2023-03-01T08:21:07;6.50;99.90
44215;DHT22;29884;47.450;19.124;2023-03-01T08:23:33;6.50;99.90
44215;DHT22;29884;47.450;19.124;2023-03-01T08:26:16;6.50;99.90
44215;DHT22;29884;47.450;19.124;2023-03-01T08:28:44;6.50;99.90
44215;DHT22;29884;47.450;19.124;2023-03-01T08:31:27;6.70;99.90
44215;DHT22;29884;47.450;19.124;2023-03-01T08:33:56;7.00;99.90
44215;DHT22;29884;47.450;19.124;2023-03-01T08:36:27;7.00;99.90
44215;DHT22;29884;47.450;19.124;2023-03-01T08:38:54;7.00;99.90
44215;DHT22;29884;47.450;19.124;2023-03-01T08:41:20;7.00;99.90
44215;DHT22;29884;47.450;19.124;2023-03-01T08:43:46;7.10;99.90
44215;DHT22;29884;47.450;19.124;2023-03-01T08:46:12;7.30;99.90
44215;DHT22;29884;47.450;19.124;2023-03-01T08:48:38;7.30;99.90
44215;DHT22;29884;47.450;19.124;2023-03-01T08:51:16;7.40;99.90
44215;DHT22;29884;47.450;19.124;2023-03-01T08:53:42;7.40;99.90
44215;DHT22;29884;47.450;19.124;2023-03-01T08:56:09;7.40;99.90
44215;DHT22;29884;47.450;19.124;2023-03-01T08:58:35;7.60;99.90
44215;DHT22;29884;47.450;19.124;2023-03-01T09:01:04;7.90;99.90
44215;DHT22;29884;47.450;19.124;2023-03-01T09:03:31;7.90;99.90
44215;DHT22;29884;47.450;19.124;2023-03-01T09:06:00;7.80;99.90
44215;DHT22;29884;47.450;19.124;2023-03-01T09:08:27;7.80;99.90
44215;DHT22;29884;47.450;19.124;2023-03-01T09:10:53;8.10;99.90
44215;DHT22;29884;47.450;19.124;2023-03-01T09:13:18;8.20;99.90
44215;DHT22;29884;47.450;19.124;2023-03-01T09:15:44;8.10;99.20
44215;DHT22;29884;47.450;19.124;2023-03-01T09:18:10;8.10;99.40
44215;DHT22;29884;47.450;19.124;2023-03-01T09:20:36;8.20;99.30
44215;DHT22;29884;47.450;19.124;2023-03-01T09:23:02;8.30;99.20
44215;DHT22;29884;47.450;19.124;2023-03-01T09:25:27;8.40;99.30
44215;DHT22;29884;47.450;19.124;2023-03-01T09:27:54;8.70;98.60
44215;DHT22;29884;47.450;19.124;2023-03-01T09:30:20;8.60;98.60
44215;DHT22;29884;47.450;19.124;2023-03-01T09:32:46;8.60;98.70
44215;DHT22;29884;47.450;19.124;2023-03-01T09:35:12;8.50;98.00
44215;DHT22;29884;47.450;19.124;2023-03-01T09:37:38;8.50;98.20
44215;DHT22;29884;47.450;19.124;2023-03-01T09:40:15;8.70;98.40
44215;DHT22;29884;47.450;19.124;2023-03-01T09:43:08;9.00;98.00
44215;DHT22;29884;47.450;19.124;2023-03-01T09:45:41;9.10;97.40
44215;DHT22;29884;47.450;19.124;2023-03-01T09:48:15;9.20;96.80
44215;DHT22;29884;47.450;19.124;2023-03-01T09:50:43;9.40;96.70
44215;DHT22;29884;47.450;19.124;2023-03-01T09:53:23;9.50;96.70
44215;DHT22;29884;47.450;19.124;2023-03-01T09:56:20;9.50;96.30
44215;DHT22;29884;47.450;19.124;2023-03-01T10:01:41;9.80;95.80
44215;DHT22;29884;47.450;19.124;2023-03-01T10:09:42;9.60;95.70
44215;DHT22;29884;47.450;19.124;2023-03-01T10:12:11;9.80;95.50
44215;DHT22;29884;47.450;19.124;2023-03-01T10:14:48;9.90;95.30
44215;DHT22;29884;47.450;19.124;2023-03-01T10:17:24;10.00;95.30
44215;DHT22;29884;47.450;19.124;2023-03-01T10:19:51;10.00;95.50
44215;DHT22;29884;47.450;19.124;2023-03-01T10:22:23;10.10;95.10
44215;DHT22;29884;47.450;19.124;2023-03-01T10:24:51;10.10;94.80
44215;DHT22;29884;47.450;19.124;2023-03-01T10:27:54;10.10;94.70
44215;DHT22;29884;47.450;19.124;2023-03-01T10:30:46;10.10;94.60
44215;DHT22;29884;47.450;19.124;2023-03-01T10:33:27;10.10;94.40
44215;DHT22;29884;47.450;19.124;2023-03-01T10:35:54;10.10;93.70
44215;DHT22;29884;47.450;19.124;2023-03-01T10:38:20;10.30;94.00
44215;DHT22;29884;47.450;19.124;2023-03-01T10:41:13;10.40;93.50
44215;DHT22;29884;47.450;19.124;2023-03-01T10:43:48;10.30;93.60
44215;DHT22;29884;47.450;19.124;2023-03-01T10:46:30;10.20;93.30
44215;DHT22;29884;47.450;19.124;2023-03-01T10:49:15;10.40;92.80
44215;DHT22;29884;47.450;19.124;2023-03-01T10:51:44;10.50;93.20
44215;DHT22;29884;47.450;19.124;2023-03-01T10:54:33;10.40;92.50
44215;DHT22;29884;47.450;19.124;2023-03-01T10:57:04;10.50;93.20
44215;DHT22;29884;47.450;19.124;2023-03-01T10:59:35;10.50;92.90
44215;DHT22;29884;47.450;19.124;2023-03-01T11:02:18;10.60;93.30
44215;DHT22;29884;47.450;19.124;2023-03-01T11:05:00;10.70;92.50
44215;DHT22;29884;47.450;19.124;2023-03-01T11:07:27;10.80;92.30
44215;DHT22;29884;47.450;19.124;2023-03-01T11:09:53;10.90;93.00
44215;DHT22;29884;47.450;19.124;2023-03-01T11:12:20;10.90;93.30
44215;DHT22;29884;47.450;19.124;2023-03-01T11:14:51;10.90;92.90
44215;DHT22;29884;47.450;19.124;2023-03-01T11:17:28;10.70;92.50
44215;DHT22;29884;47.450;19.124;2023-03-01T11:22:27;10.80;92.70
44215;DHT22;29884;47.450;19.124;2023-03-01T11:24:54;10.80;93.10
44215;DHT22;29884;47.450;19.124;2023-03-01T11:27:35;11.00;93.10
44215;DHT22;29884;47.450;19.124;2023-03-01T11:32:58;11.10;92.80
44215;DHT22;29884;47.450;19.124;2023-03-01T11:35:27;11.10;92.80
44215;DHT22;29884;47.450;19.124;2023-03-01T11:41:13;11.10;92.50
44215;DHT22;29884;47.450;19.124;2023-03-01T11:46:26;11.00;93.10
44215;DHT22;29884;47.450;19.124;2023-03-01T11:54:41;10.90;92.60
44215;DHT22;29884;47.450;19.124;2023-03-01T12:00:23;11.30;92.10
44215;DHT22;29884;47.450;19.124;2023-03-01T12:03:09;11.20;92.30
44215;DHT22;29884;47.450;19.124;2023-03-01T12:08:42;11.30;92.00
44215;DHT22;29884;47.450;19.124;2023-03-01T12:25:45;11.50;91.40
44215;DHT22;29884;47.450;19.124;2023-03-01T12:31:37;11.60;91.60
44215;DHT22;29884;47.450;19.124;2023-03-01T12:42:36;11.50;91.10
44215;DHT22;29884;47.450;19.124;2023-03-01T12:45:21;11.50;91.10
44215;DHT22;29884;47.450;19.124;2023-03-01T12:50:44;11.60;91.20
44215;DHT22;29884;47.450;19.124;2023-03-01T12:53:51;11.60;90.70
44215;DHT22;29884;47.450;19.124;2023-03-01T12:56:22;11.60;90.90
44215;DHT22;29884;47.450;19.124;2023-03-01T13:09:51;11.50;92.30
44215;DHT22;29884;47.450;19.124;2023-03-01T13:17:54;11.40;92.40
44215;DHT22;29884;47.450;19.124;2023-03-01T13:20:26;11.50;92.40
44215;DHT22;29884;47.450;19.124;2023-03-01T13:23:07;11.60;92.60
44215;DHT22;29884;47.450;19.124;2023-03-01T13:25:34;11.70;92.50
44215;DHT22;29884;47.450;19.124;2023-03-01T13:31:00;11.70;92.10
44215;DHT22;29884;47.450;19.124;2023-03-01T13:35:56;11.70;92.20
44215;DHT22;29884;47.450;19.124;2023-03-01T13:38:47;11.70;91.90
44215;DHT22;29884;47.450;19.124;2023-03-01T13:44:32;11.70;92.20
44215;DHT22;29884;47.450;19.124;2023-03-01T13:47:16;11.70;92.10
44215;DHT22;29884;47.450;19.124;2023-03-01T13:49:49;11.80;91.60
44215;DHT22;29884;47.450;19.124;2023-03-01T13:52:40;11.80;91.40
44215;DHT22;29884;47.450;19.124;2023-03-01T13:57:48;11.90;91.50
44215;DHT22;29884;47.450;19.124;2023-03-01T14:03:23;12.10;91.10
44215;DHT22;29884;47.450;19.124;2023-03-01T14:05:59;12.20;91.20
44215;DHT22;29884;47.450;19.124;2023-03-01T14:08:27;12.10;90.90
44215;DHT22;29884;47.450;19.124;2023-03-01T14:13:54;11.90;91.30
44215;DHT22;29884;47.450;19.124;2023-03-01T14:19:35;12.00;91.20
44215;DHT22;29884;47.450;19.124;2023-03-01T14:22:22;12.00;91.50
44215;DHT22;29884;47.450;19.124;2023-03-01T14:27:20;11.80;91.20
44215;DHT22;29884;47.450;19.124;2023-03-01T14:30:00;11.80;91.40
44215;DHT22;29884;47.450;19.124;2023-03-01T14:32:28;11.80;91.20
44215;DHT22;29884;47.450;19.124;2023-03-01T14:34:54;11.80;91.40
44215;DHT22;29884;47.450;19.124;2023-03-01T14:37:30;11.80;91.30
44215;DHT22;29884;47.450;19.124;2023-03-01T14:39:58;11.70;91.40
44215;DHT22;29884;47.450;19.124;2023-03-01T14:42:27;11.70;91.20
44215;DHT22;29884;47.450;19.124;2023-03-01T14:44:55;11.60;91.50
44215;DHT22;29884;47.450;19.124;2023-03-01T14:47:30;11.60;91.70
44215;DHT22;29884;47.450;19.124;2023-03-01T14:50:24;11.70;91.70
44215;DHT22;29884;47.450;19.124;2023-03-01T14:52:51;11.70;91.60
44215;DHT22;29884;47.450;19.124;2023-03-01T14:55:41;11.80;91.60
44215;DHT22;29884;47.450;19.124;2023-03-01T14:58:11;11.70;91.50
44215;DHT22;29884;47.450;19.124;2023-03-01T15:00:38;11.70;91.40
44215;DHT22;29884;47.450;19.124;2023-03-01T15:03:13;11.70;91.60
44215;DHT22;29884;47.450;19.124;2023-03-01T15:05:42;11.60;91.50
44215;DHT22;29884;47.450;19.124;2023-03-01T15:08:21;11.50;91.40
44215;DHT22;29884;47.450;19.124;2023-03-01T15:11:15;11.50;91.60
44215;DHT22;29884;47.450;19.124;2023-03-01T15:13:42;11.50;91.70
44215;DHT22;29884;47.450;19.124;2023-03-01T15:18:52;11.40;91.80
44215;DHT22;29884;47.450;19.124;2023-03-01T15:21:21;11.40;91.90
44215;DHT22;29884;47.450;19.124;2023-03-01T15:23:57;11.30;91.90
44215;DHT22;29884;47.450;19.124;2023-03-01T15:26:36;11.30;91.90
44215;DHT22;29884;47.450;19.124;2023-03-01T15:29:03;11.30;92.00
44215;DHT22;29884;47.450;19.124;2023-03-01T15:31:35;11.30;92.00
44215;DHT22;29884;47.450;19.124;2023-03-01T15:34:21;11.20;92.30
44215;DHT22;29884;47.450;19.124;2023-03-01T15:36:47;11.20;92.30
44215;DHT22;29884;47.450;19.124;2023-03-01T15:42:17;11.10;92.30
44215;DHT22;29884;47.450;19.124;2023-03-01T15:47:40;11.00;92.50
44215;DHT22;29884;47.450;19.124;2023-03-01T15:50:53;10.90;92.50
44215;DHT22;29884;47.450;19.124;2023-03-01T15:53:13;10.90;92.60
44215;DHT22;29884;47.450;19.124;2023-03-01T15:55:39;10.80;92.80
44215;DHT22;29884;47.450;19.124;2023-03-01T15:58:06;10.80;92.70
44215;DHT22;29884;47.450;19.124;2023-03-01T16:00:35;10.70;92.80
44215;DHT22;29884;47.450;19.124;2023-03-01T16:03:01;10.70;93.00
44215;DHT22;29884;47.450;19.124;2023-03-01T16:05:29;10.60;93.30
44215;DHT22;29884;47.450;19.124;2023-03-01T16:07:58;10.50;93.50
44215;DHT22;29884;47.450;19.124;2023-03-01T16:10:24;10.40;93.70
44215;DHT22;29884;47.450;19.124;2023-03-01T16:12:51;10.30;93.80
44215;DHT22;29884;47.450;19.124;2023-03-01T16:15:21;10.30;93.90
44215;DHT22;29884;47.450;19.124;2023-03-01T16:17:47;10.20;94.30
44215;DHT22;29884;47.450;19.124;2023-03-01T16:20:13;10.20;94.20
44215;DHT22;29884;47.450;19.124;2023-03-01T16:22:42;10.10;94.40
44215;DHT22;29884;47.450;19.124;2023-03-01T16:25:10;10.00;94.60
44215;DHT22;29884;47.450;19.124;2023-03-01T16:27:36;9.90;95.10
44215;DHT22;29884;47.450;19.124;2023-03-01T16:30:01;9.90;95.00
44215;DHT22;29884;47.450;19.124;2023-03-01T16:32:27;9.80;95.20
44215;DHT22;29884;47.450;19.124;2023-03-01T16:34:53;9.70;95.30
44215;DHT22;29884;47.450;19.124;2023-03-01T16:37:19;9.60;95.30
44215;DHT22;29884;47.450;19.124;2023-03-01T16:39:44;9.60;95.60
44215;DHT22;29884;47.450;19.124;2023-03-01T16:42:10;9.50;95.70
44215;DHT22;29884;47.450;19.124;2023-03-01T16:44:36;9.50;95.80
44215;DHT22;29884;47.450;19.124;2023-03-01T16:47:02;9.40;95.90
44215;DHT22;29884;47.450;19.124;2023-03-01T16:49:27;9.30;96.00
44215;DHT22;29884;47.450;19.124;2023-03-01T16:51:53;9.30;96.10
44215;DHT22;29884;47.450;19.124;2023-03-01T16:54:19;9.20;96.30
44215;DHT22;29884;47.450;19.124;2023-03-01T16:56:45;9.10;96.60
44215;DHT22;29884;47.450;19.124;2023-03-01T16:59:10;9.00;96.80
44215;DHT22;29884;47.450;19.124;2023-03-01T17:01:36;8.90;97.10
44215;DHT22;29884;47.450;19.124;2023-03-01T17:04:06;8.80;97.50
44215;DHT22;29884;47.450;19.124;2023-03-01T17:06:32;8.60;97.90
44215;DHT22;29884;47.450;19.124;2023-03-01T17:08:58;8.60;98.30
44215;DHT22;29884;47.450;19.124;2023-03-01T17:11:25;8.50;98.50
44215;DHT22;29884;47.450;19.124;2023-03-01T17:13:51;8.40;98.70
44215;DHT22;29884;47.450;19.124;2023-03-01T17:16:18;8.40;98.90
44215;DHT22;29884;47.450;19.124;2023-03-01T17:18:45;8.40;99.00
44215;DHT22;29884;47.450;19.124;2023-03-01T17:21:11;8.20;99.30
44215;DHT22;29884;47.450;19.124;2023-03-01T17:23:39;8.20;99.40
44215;DHT22;29884;47.450;19.124;2023-03-01T17:26:06;8.10;99.90
44215;DHT22;29884;47.450;19.124;2023-03-01T17:28:33;8.00;99.90
44215;DHT22;29884;47.450;19.124;2023-03-01T17:31:00;7.90;99.90
44215;DHT22;29884;47.450;19.124;2023-03-01T17:33:26;7.80;99.90
44215;DHT22;29884;47.450;19.124;2023-03-01T17:35:52;7.90;99.90
44215;DHT22;29884;47.450;19.124;2023-03-01T17:38:18;8.00;99.90
44215;DHT22;29884;47.450;19.124;2023-03-01T17:40:44;8.00;99.90
44215;DHT22;29884;47.450;19.124;2023-03-01T17:43:12;8.00;99.90
44215;DHT22;29884;47.450;19.124;2023-03-01T17:45:38;8.00;99.90
44215;DHT22;29884;47.450;19.124;2023-03-01T17:48:05;8.00;99.90